sensor_id;sensor_type;location;lat;lon;timestamp;P1;durP1;ratioP1;P2;durP2;ratioP2
26620;SDS011;14253;44.840;10.444;2023-01-24T00:00:34;3.55;;;1.50;;
26620;SDS011;14253;44.840;10.444;2023-01-24T00:03:00;6.55;;;2.00;;
26620;SDS011;14253;44.840;10.444;2023-01-24T00:05:26;2.83;;;1.65;;
26620;SDS011;14253;44.840;10.444;2023-01-24T00:07:52;3.42;;;1.83;;
26620;SDS011;14253;44.840;10.444;2023-01-24T00:10:18;4.57;;;1.58;;
26620;SDS011;14253;44.840;10.444;2023-01-24T00:12:44;3.13;;;1.45;;
26620;SDS011;14253;44.840;10.444;2023-01-24T00:15:10;9.27;;;4.05;;
26620;SDS011;14253;44.840;10.444;2023-01-24T00:17:36;4.72;;;2.17;;
26620;SDS011;14253;44.840;10.444;2023-01-24T00:20:02;2.95;;;1.60;;
26620;SDS011;14253;44.840;10.444;2023-01-24T00:22:31;4.20;;;1.88;;
26620;SDS011;14253;44.840;10.444;2023-01-24T00:24:57;2.55;;;1.40;;
26620;SDS011;14253;44.840;10.444;2023-01-24T00:27:23;3.47;;;1.48;;
26620;SDS011;14253;44.840;10.444;2023-01-24T00:29:50;5.45;;;1.83;;
26620;SDS011;14253;44.840;10.444;2023-01-24T00:32:16;5.05;;;1.63;;
26620;SDS011;14253;44.840;10.444;2023-01-24T00:34:42;2.22;;;1.38;;
26620;SDS011;14253;44.840;10.444;2023-01-24T00:37:08;3.72;;;1.70;;
26620;SDS011;14253;44.840;10.444;2023-01-24T00:39:33;3.45;;;1.65;;
26620;SDS011;14253;44.840;10.444;2023-01-24T00:41:59;4.80;;;1.80;;
26620;SDS011;14253;44.840;10.444;2023-01-24T00:44:25;3.25;;;1.73;;
26620;SDS011;14253;44.840;10.444;2023-01-24T00:46:51;4.80;;;1.60;;
26620;SDS011;14253;44.840;10.444;2023-01-24T00:49:18;6.47;;;1.80;;
26620;SDS011;14253;44.840;10.444;2023-01-24T00:51:44;3.97;;;1.40;;
26620;SDS011;14253;44.840;10.444;2023-01-24T00:54:11;3.22;;;1.80;;
26620;SDS011;14253;44.840;10.444;2023-01-24T00:56:37;1.92;;;1.40;;
26620;SDS011;14253;44.840;10.444;2023-01-24T00:59:02;6.68;;;1.77;;
26620;SDS011;14253;44.840;10.444;2023-01-24T01:01:28;4.78;;;1.70;;
26620;SDS011;14253;44.840;10.444;2023-01-24T01:03:55;4.22;;;1.40;;
26620;SDS011;14253;44.840;10.444;2023-01-24T01:06:21;5.45;;;1.75;;
26620;SDS011;14253;44.840;10.444;2023-01-24T01:08:48;3.70;;;1.80;;
26620;SDS011;14253;44.840;10.444;2023-01-24T01:11:14;4.38;;;1.92;;
26620;SDS011;14253;44.840;10.444;2023-01-24T01:13:40;4.53;;;1.83;;
26620;SDS011;14253;44.840;10.444;2023-01-24T01:16:07;3.75;;;1.52;;
26620;SDS011;14253;44.840;10.444;2023-01-24T01:18:38;2.35;;;1.40;;
26620;SDS011;14253;44.840;10.444;2023-01-24T01:21:04;3.22;;;1.60;;
26620;SDS011;14253;44.840;10.444;2023-01-24T01:23:31;3.05;;;1.52;;
26620;SDS011;14253;44.840;10.444;2023-01-24T01:26:00;2.15;;;1.40;;
26620;SDS011;14253;44.840;10.444;2023-01-24T01:28:28;3.20;;;1.65;;
26620;SDS011;14253;44.840;10.444;2023-01-24T01:30:55;2.45;;;1.60;;
26620;SDS011;14253;44.840;10.444;2023-01-24T01:33:21;6.53;;;1.50;;
26620;SDS011;14253;44.840;10.444;2023-01-24T01:35:48;4.03;;;1.85;;
26620;SDS011;14253;44.840;10.444;2023-01-24T01:38:14;5.35;;;1.58;;
26620;SDS011;14253;44.840;10.444;2023-01-24T01:40:41;3.17;;;1.38;;
26620;SDS011;14253;44.840;10.444;2023-01-24T01:43:15;7.40;;;1.80;;
26620;SDS011;14253;44.840;10.444;2023-01-24T01:48:21;3.42;;;2.00;;
26620;SDS011;14253;44.840;10.444;2023-01-24T01:54:07;2.90;;;1.63;;
26620;SDS011;14253;44.840;10.444;2023-01-24T01:56:42;2.22;;;1.40;;
26620;SDS011;14253;44.840;10.444;2023-01-24T01:59:18;2.70;;;2.05;;
26620;SDS011;14253;44.840;10.444;2023-01-24T02:01:47;4.90;;;2.00;;
26620;SDS011;14253;44.840;10.444;2023-01-24T02:04:25;5.25;;;2.20;;
26620;SDS011;14253;44.840;10.444;2023-01-24T02:09:47;2.80;;;1.50;;
26620;SDS011;14253;44.840;10.444;2023-01-24T02:12:17;4.72;;;1.88;;
26620;SDS011;14253;44.840;10.444;2023-01-24T02:14:53;5.28;;;2.25;;
26620;SDS011;14253;44.840;10.444;2023-01-24T02:17:41;6.05;;;2.25;;
26620;SDS011;14253;44.840;10.444;2023-01-24T02:23:10;5.78;;;2.05;;
26620;SDS011;14253;44.840;10.444;2023-01-24T02:25:50;3.90;;;2.15;;
26620;SDS011;14253;44.840;10.444;2023-01-24T02:28:35;4.55;;;2.30;;
26620;SDS011;14253;44.840;10.444;2023-01-24T02:31:03;4.47;;;2.33;;
26620;SDS011;14253;44.840;10.444;2023-01-24T02:33:30;4.00;;;2.40;;
26620;SDS011;14253;44.840;10.444;2023-01-24T02:38:50;8.30;;;3.03;;
26620;SDS011;14253;44.840;10.444;2023-01-24T02:41:25;8.23;;;2.67;;
26620;SDS011;14253;44.840;10.444;2023-01-24T02:43:56;8.93;;;3.13;;
26620;SDS011;14253;44.840;10.444;2023-01-24T02:46:28;6.00;;;2.72;;
26620;SDS011;14253;44.840;10.444;2023-01-24T02:48:55;5.95;;;2.35;;
26620;SDS011;14253;44.840;10.444;2023-01-24T02:51:21;4.80;;;2.70;;
26620;SDS011;14253;44.840;10.444;2023-01-24T02:54:05;4.60;;;2.40;;
26620;SDS011;14253;44.840;10.444;2023-01-24T02:56:31;5.13;;;3.00;;
26620;SDS011;14253;44.840;10.444;2023-01-24T02:59:26;6.65;;;2.72;;
26620;SDS011;14253;44.840;10.444;2023-01-24T03:01:52;6.07;;;2.63;;
26620;SDS011;14253;44.840;10.444;2023-01-24T03:04:18;5.63;;;2.42;;
26620;SDS011;14253;44.840;10.444;2023-01-24T03:06:44;5.22;;;2.90;;
26620;SDS011;14253;44.840;10.444;2023-01-24T03:09:10;6.47;;;2.50;;
26620;SDS011;14253;44.840;10.444;2023-01-24T03:12:00;4.68;;;2.25;;
26620;SDS011;14253;44.840;10.444;2023-01-24T03:14:45;6.80;;;2.45;;
26620;SDS011;14253;44.840;10.444;2023-01-24T03:17:30;10.25;;;3.22;;
26620;SDS011;14253;44.840;10.444;2023-01-24T03:20:15;4.72;;;2.67;;
26620;SDS011;14253;44.840;10.444;2023-01-24T03:22:59;6.15;;;3.13;;
26620;SDS011;14253;44.840;10.444;2023-01-24T03:25:44;6.03;;;2.75;;
26620;SDS011;14253;44.840;10.444;2023-01-24T03:28:29;5.25;;;2.63;;
26620;SDS011;14253;44.840;10.444;2023-01-24T03:31:13;4.20;;;3.00;;
26620;SDS011;14253;44.840;10.444;2023-01-24T03:33:58;4.05;;;2.33;;
26620;SDS011;14253;44.840;10.444;2023-01-24T03:36:43;5.43;;;2.67;;
26620;SDS011;14253;44.840;10.444;2023-01-24T03:39:10;5.80;;;2.90;;
26620;SDS011;14253;44.840;10.444;2023-01-24T03:41:56;5.20;;;3.22;;
26620;SDS011;14253;44.840;10.444;2023-01-24T03:44:22;5.55;;;3.30;;
26620;SDS011;14253;44.840;10.444;2023-01-24T03:46:49;6.07;;;3.28;;
26620;SDS011;14253;44.840;10.444;2023-01-24T03:49:16;5.85;;;3.55;;
26620;SDS011;14253;44.840;10.444;2023-01-24T03:51:42;7.63;;;3.30;;
26620;SDS011;14253;44.840;10.444;2023-01-24T03:54:27;5.13;;;3.00;;
26620;SDS011;14253;44.840;10.444;2023-01-24T03:56:58;6.97;;;3.50;;
26620;SDS011;14253;44.840;10.444;2023-01-24T03:59:24;4.40;;;2.53;;
26620;SDS011;14253;44.840;10.444;2023-01-24T04:01:50;7.63;;;3.40;;
26620;SDS011;14253;44.840;10.444;2023-01-24T04:04:24;4.72;;;3.28;;
26620;SDS011;14253;44.840;10.444;2023-01-24T04:07:10;6.43;;;3.53;;
26620;SDS011;14253;44.840;10.444;2023-01-24T04:09:36;5.68;;;3.55;;
26620;SDS011;14253;44.840;10.444;2023-01-24T04:12:02;7.55;;;3.13;;
26620;SDS011;14253;44.840;10.444;2023-01-24T04:14:29;6.57;;;3.30;;
26620;SDS011;14253;44.840;10.444;2023-01-24T04:17:03;6.65;;;3.60;;
26620;SDS011;14253;44.840;10.444;2023-01-24T04:19:37;5.75;;;3.03;;
26620;SDS011;14253;44.840;10.444;2023-01-24T04:22:04;5.40;;;3.30;;
26620;SDS011;14253;44.840;10.444;2023-01-24T04:24:32;8.90;;;3.70;;
26620;SDS011;14253;44.840;10.444;2023-01-24T04:26:58;6.28;;;3.40;;
26620;SDS011;14253;44.840;10.444;2023-01-24T04:29:30;8.05;;;3.30;;
26620;SDS011;14253;44.840;10.444;2023-01-24T04:31:58;6.25;;;3.15;;
26620;SDS011;14253;44.840;10.444;2023-01-24T04:34:34;8.60;;;3.80;;
26620;SDS011;14253;44.840;10.444;2023-01-24T04:37:01;7.63;;;3.40;;
26620;SDS011;14253;44.840;10.444;2023-01-24T04:39:28;5.82;;;2.97;;
26620;SDS011;14253;44.840;10.444;2023-01-24T04:42:07;4.53;;;3.40;;
26620;SDS011;14253;44.840;10.444;2023-01-24T04:44:33;6.47;;;3.30;;
26620;SDS011;14253;44.840;10.444;2023-01-24T04:46:59;4.63;;;3.28;;
26620;SDS011;14253;44.840;10.444;2023-01-24T04:49:26;6.20;;;3.08;;
26620;SDS011;14253;44.840;10.444;2023-01-24T04:51:51;4.47;;;3.55;;
26620;SDS011;14253;44.840;10.444;2023-01-24T04:54:22;8.95;;;3.58;;
26620;SDS011;14253;44.840;10.444;2023-01-24T04:56:49;8.68;;;3.22;;
26620;SDS011;14253;44.840;10.444;2023-01-24T04:59:16;5.82;;;3.58;;
26620;SDS011;14253;44.840;10.444;2023-01-24T05:01:45;8.10;;;3.05;;
26620;SDS011;14253;44.840;10.444;2023-01-24T05:04:24;6.47;;;3.83;;
26620;SDS011;14253;44.840;10.444;2023-01-24T05:06:51;8.20;;;3.70;;
26620;SDS011;14253;44.840;10.444;2023-01-24T05:09:17;5.78;;;3.45;;
26620;SDS011;14253;44.840;10.444;2023-01-24T05:11:51;6.13;;;3.25;;
26620;SDS011;14253;44.840;10.444;2023-01-24T05:14:17;4.45;;;3.28;;
26620;SDS011;14253;44.840;10.444;2023-01-24T05:16:44;6.00;;;3.90;;
26620;SDS011;14253;44.840;10.444;2023-01-24T05:19:10;7.43;;;3.63;;
26620;SDS011;14253;44.840;10.444;2023-01-24T05:21:36;9.18;;;3.70;;
26620;SDS011;14253;44.840;10.444;2023-01-24T05:24:03;6.45;;;3.78;;
26620;SDS011;14253;44.840;10.444;2023-01-24T05:26:29;7.10;;;3.88;;
26620;SDS011;14253;44.840;10.444;2023-01-24T05:28:57;6.32;;;4.10;;
26620;SDS011;14253;44.840;10.444;2023-01-24T05:31:23;8.30;;;3.97;;
26620;SDS011;14253;44.840;10.444;2023-01-24T05:33:49;8.77;;;4.05;;
26620;SDS011;14253;44.840;10.444;2023-01-24T05:36:19;6.45;;;3.92;;
26620;SDS011;14253;44.840;10.444;2023-01-24T05:38:47;7.00;;;4.15;;
26620;SDS011;14253;44.840;10.444;2023-01-24T05:41:15;11.27;;;4.63;;
26620;SDS011;14253;44.840;10.444;2023-01-24T05:43:42;8.10;;;4.90;;
26620;SDS011;14253;44.840;10.444;2023-01-24T05:46:11;9.57;;;4.57;;
26620;SDS011;14253;44.840;10.444;2023-01-24T05:48:45;10.20;;;4.57;;
26620;SDS011;14253;44.840;10.444;2023-01-24T05:51:13;13.35;;;4.88;;
26620;SDS011;14253;44.840;10.444;2023-01-24T05:53:41;11.48;;;4.88;;
26620;SDS011;14253;44.840;10.444;2023-01-24T05:56:11;8.30;;;4.28;;
26620;SDS011;14253;44.840;10.444;2023-01-24T05:58:39;10.32;;;4.78;;
26620;SDS011;14253;44.840;10.444;2023-01-24T06:01:08;11.93;;;5.22;;
26620;SDS011;14253;44.840;10.444;2023-01-24T06:03:40;9.15;;;4.68;;
26620;SDS011;14253;44.840;10.444;2023-01-24T06:06:08;13.70;;;4.22;;
26620;SDS011;14253;44.840;10.444;2023-01-24T06:08:35;11.15;;;5.45;;
26620;SDS011;14253;44.840;10.444;2023-01-24T06:11:02;11.25;;;5.35;;
26620;SDS011;14253;44.840;10.444;2023-01-24T06:13:30;11.60;;;4.82;;
26620;SDS011;14253;44.840;10.444;2023-01-24T06:16:16;9.70;;;4.75;;
26620;SDS011;14253;44.840;10.444;2023-01-24T06:18:45;9.00;;;4.25;;
26620;SDS011;14253;44.840;10.444;2023-01-24T06:23:53;12.50;;;7.60;;
26620;SDS011;14253;44.840;10.444;2023-01-24T06:26:20;17.08;;;7.90;;
26620;SDS011;14253;44.840;10.444;2023-01-24T06:28:46;11.77;;;6.43;;
26620;SDS011;14253;44.840;10.444;2023-01-24T06:31:19;11.57;;;5.47;;
26620;SDS011;14253;44.840;10.444;2023-01-24T06:34:16;14.13;;;5.40;;
26620;SDS011;14253;44.840;10.444;2023-01-24T06:39:50;11.85;;;5.60;;
26620;SDS011;14253;44.840;10.444;2023-01-24T06:42:18;12.73;;;7.03;;
26620;SDS011;14253;44.840;10.444;2023-01-24T06:44:45;13.48;;;5.78;;
26620;SDS011;14253;44.840;10.444;2023-01-24T06:47:12;12.75;;;6.25;;
26620;SDS011;14253;44.840;10.444;2023-01-24T06:49:38;14.95;;;6.22;;
26620;SDS011;14253;44.840;10.444;2023-01-24T06:52:04;14.52;;;5.85;;
26620;SDS011;14253;44.840;10.444;2023-01-24T06:54:32;12.73;;;7.15;;
26620;SDS011;14253;44.840;10.444;2023-01-24T06:56:58;15.40;;;9.10;;
26620;SDS011;14253;44.840;10.444;2023-01-24T06:59:24;13.38;;;6.60;;
26620;SDS011;14253;44.840;10.444;2023-01-24T07:01:50;12.77;;;6.60;;
26620;SDS011;14253;44.840;10.444;2023-01-24T07:04:16;11.95;;;6.93;;
26620;SDS011;14253;44.840;10.444;2023-01-24T07:06:42;14.65;;;7.50;;
26620;SDS011;14253;44.840;10.444;2023-01-24T07:09:09;14.90;;;9.02;;
26620;SDS011;14253;44.840;10.444;2023-01-24T07:11:35;14.90;;;8.55;;
26620;SDS011;14253;44.840;10.444;2023-01-24T07:14:02;14.18;;;7.00;;
26620;SDS011;14253;44.840;10.444;2023-01-24T07:16:28;15.70;;;7.45;;
26620;SDS011;14253;44.840;10.444;2023-01-24T07:18:54;13.23;;;8.73;;
26620;SDS011;14253;44.840;10.444;2023-01-24T07:21:20;11.95;;;8.40;;
26620;SDS011;14253;44.840;10.444;2023-01-24T07:23:47;17.10;;;7.63;;
26620;SDS011;14253;44.840;10.444;2023-01-24T07:26:14;12.10;;;8.27;;
26620;SDS011;14253;44.840;10.444;2023-01-24T07:28:40;13.07;;;8.43;;
26620;SDS011;14253;44.840;10.444;2023-01-24T07:31:07;18.02;;;8.52;;
26620;SDS011;14253;44.840;10.444;2023-01-24T07:33:37;14.32;;;9.48;;
26620;SDS011;14253;44.840;10.444;2023-01-24T07:36:10;13.35;;;8.70;;
26620;SDS011;14253;44.840;10.444;2023-01-24T07:38:39;12.07;;;8.02;;
26620;SDS011;14253;44.840;10.444;2023-01-24T07:41:09;12.82;;;7.55;;
26620;SDS011;14253;44.840;10.444;2023-01-24T07:43:35;16.40;;;7.10;;
26620;SDS011;14253;44.840;10.444;2023-01-24T07:46:01;12.15;;;6.50;;
26620;SDS011;14253;44.840;10.444;2023-01-24T07:48:28;11.68;;;6.80;;
26620;SDS011;14253;44.840;10.444;2023-01-24T07:50:57;11.38;;;6.60;;
26620;SDS011;14253;44.840;10.444;2023-01-24T07:53:25;13.13;;;6.75;;
26620;SDS011;14253;44.840;10.444;2023-01-24T07:55:51;11.60;;;6.47;;
26620;SDS011;14253;44.840;10.444;2023-01-24T07:58:16;14.23;;;6.38;;
26620;SDS011;14253;44.840;10.444;2023-01-24T08:00:42;15.23;;;6.63;;
26620;SDS011;14253;44.840;10.444;2023-01-24T08:03:10;15.10;;;6.95;;
26620;SDS011;14253;44.840;10.444;2023-01-24T08:05:38;11.68;;;6.30;;
26620;SDS011;14253;44.840;10.444;2023-01-24T08:08:05;17.10;;;7.28;;
26620;SDS011;14253;44.840;10.444;2023-01-24T08:10:31;14.40;;;7.55;;
26620;SDS011;14253;44.840;10.444;2023-01-24T08:12:57;18.35;;;7.80;;
26620;SDS011;14253;44.840;10.444;2023-01-24T08:15:24;13.98;;;7.13;;
26620;SDS011;14253;44.840;10.444;2023-01-24T08:17:50;12.32;;;7.70;;
26620;SDS011;14253;44.840;10.444;2023-01-24T08:20:17;15.05;;;8.65;;
26620;SDS011;14253;44.840;10.444;2023-01-24T08:22:43;13.88;;;9.00;;
26620;SDS011;14253;44.840;10.444;2023-01-24T08:25:09;21.20;;;9.20;;
26620;SDS011;14253;44.840;10.444;2023-01-24T08:27:38;14.65;;;8.90;;
26620;SDS011;14253;44.840;10.444;2023-01-24T08:30:07;17.40;;;10.82;;
26620;SDS011;14253;44.840;10.444;2023-01-24T08:32:36;19.08;;;10.23;;
26620;SDS011;14253;44.840;10.444;2023-01-24T08:35:03;15.23;;;9.45;;
26620;SDS011;14253;44.840;10.444;2023-01-24T08:37:29;20.98;;;11.73;;
26620;SDS011;14253;44.840;10.444;2023-01-24T08:39:55;15.77;;;10.57;;
26620;SDS011;14253;44.840;10.444;2023-01-24T08:42:22;19.55;;;13.02;;
26620;SDS011;14253;44.840;10.444;2023-01-24T08:44:49;17.92;;;11.65;;
26620;SDS011;14253;44.840;10.444;2023-01-24T08:47:16;20.88;;;11.93;;
26620;SDS011;14253;44.840;10.444;2023-01-24T08:49:43;20.63;;;12.55;;
26620;SDS011;14253;44.840;10.444;2023-01-24T08:52:11;17.30;;;11.15;;
26620;SDS011;14253;44.840;10.444;2023-01-24T08:54:37;15.18;;;10.00;;
26620;SDS011;14253;44.840;10.444;2023-01-24T08:57:04;15.85;;;10.50;;
26620;SDS011;14253;44.840;10.444;2023-01-24T08:59:32;25.55;;;14.02;;
26620;SDS011;14253;44.840;10.444;2023-01-24T09:01:59;25.83;;;11.27;;
26620;SDS011;14253;44.840;10.444;2023-01-24T09:04:25;31.40;;;14.32;;
26620;SDS011;14253;44.840;10.444;2023-01-24T09:06:52;19.85;;;12.02;;
26620;SDS011;14253;44.840;10.444;2023-01-24T09:09:18;16.90;;;10.93;;
26620;SDS011;14253;44.840;10.444;2023-01-24T09:11:44;22.73;;;13.73;;
26620;SDS011;14253;44.840;10.444;2023-01-24T09:14:10;20.40;;;13.57;;
26620;SDS011;14253;44.840;10.444;2023-01-24T09:16:36;21.95;;;14.10;;
26620;SDS011;14253;44.840;10.444;2023-01-24T09:19:02;23.40;;;15.88;;
26620;SDS011;14253;44.840;10.444;2023-01-24T09:21:28;20.52;;;12.93;;
26620;SDS011;14253;44.840;10.444;2023-01-24T09:23:54;24.52;;;14.32;;
26620;SDS011;14253;44.840;10.444;2023-01-24T09:26:20;19.60;;;12.20;;
26620;SDS011;14253;44.840;10.444;2023-01-24T09:28:47;13.93;;;9.50;;
26620;SDS011;14253;44.840;10.444;2023-01-24T09:31:13;17.05;;;10.65;;
26620;SDS011;14253;44.840;10.444;2023-01-24T09:33:39;17.38;;;9.73;;
26620;SDS011;14253;44.840;10.444;2023-01-24T09:36:05;14.57;;;9.55;;
26620;SDS011;14253;44.840;10.444;2023-01-24T09:38:32;17.30;;;9.45;;
26620;SDS011;14253;44.840;10.444;2023-01-24T09:46:30;13.02;;;7.53;;
26620;SDS011;14253;44.840;10.444;2023-01-24T09:51:56;13.45;;;7.93;;
26620;SDS011;14253;44.840;10.444;2023-01-24T09:57:01;17.27;;;11.13;;
26620;SDS011;14253;44.840;10.444;2023-01-24T09:59:42;17.40;;;11.35;;
26620;SDS011;14253;44.840;10.444;2023-01-24T10:02:18;20.50;;;11.35;;
26620;SDS011;14253;44.840;10.444;2023-01-24T10:04:46;14.55;;;10.63;;
26620;SDS011;14253;44.840;10.444;2023-01-24T10:10:25;16.27;;;9.05;;
26620;SDS011;14253;44.840;10.444;2023-01-24T10:13:16;13.55;;;9.20;;
26620;SDS011;14253;44.840;10.444;2023-01-24T10:16:18;12.07;;;8.40;;
26620;SDS011;14253;44.840;10.444;2023-01-24T10:24:32;14.50;;;8.32;;
26620;SDS011;14253;44.840;10.444;2023-01-24T10:27:12;13.90;;;8.30;;
26620;SDS011;14253;44.840;10.444;2023-01-24T10:32:52;15.20;;;8.07;;
26620;SDS011;14253;44.840;10.444;2023-01-24T10:35:26;9.52;;;6.38;;
26620;SDS011;14253;44.840;10.444;2023-01-24T10:37:58;11.68;;;6.97;;
26620;SDS011;14253;44.840;10.444;2023-01-24T10:40:26;11.75;;;6.43;;
26620;SDS011;14253;44.840;10.444;2023-01-24T10:42:53;12.82;;;6.25;;
26620;SDS011;14253;44.840;10.444;2023-01-24T10:45:22;17.80;;;6.03;;
26620;SDS011;14253;44.840;10.444;2023-01-24T10:48:34;11.10;;;5.78;;
26620;SDS011;14253;44.840;10.444;2023-01-24T10:51:19;9.65;;;5.70;;
26620;SDS011;14253;44.840;10.444;2023-01-24T10:53:47;10.65;;;6.25;;
26620;SDS011;14253;44.840;10.444;2023-01-24T10:56:15;10.13;;;6.28;;
26620;SDS011;14253;44.840;10.444;2023-01-24T11:01:35;13.05;;;7.07;;
26620;SDS011;14253;44.840;10.444;2023-01-24T11:06:57;11.25;;;6.30;;
26620;SDS011;14253;44.840;10.444;2023-01-24T11:09:30;10.50;;;6.32;;
26620;SDS011;14253;44.840;10.444;2023-01-24T11:11:59;10.20;;;5.78;;
26620;SDS011;14253;44.840;10.444;2023-01-24T11:14:26;11.02;;;5.53;;
26620;SDS011;14253;44.840;10.444;2023-01-24T11:16:59;12.55;;;6.20;;
26620;SDS011;14253;44.840;10.444;2023-01-24T11:19:30;9.70;;;6.35;;
26620;SDS011;14253;44.840;10.444;2023-01-24T11:24:46;10.25;;;6.32;;
26620;SDS011;14253;44.840;10.444;2023-01-24T11:27:13;14.05;;;7.38;;
26620;SDS011;14253;44.840;10.444;2023-01-24T11:29:41;17.75;;;7.63;;
26620;SDS011;14253;44.840;10.444;2023-01-24T11:35:02;11.45;;;6.07;;
26620;SDS011;14253;44.840;10.444;2023-01-24T11:43:29;10.52;;;6.28;;
26620;SDS011;14253;44.840;10.444;2023-01-24T11:52:07;12.88;;;6.55;;
26620;SDS011;14253;44.840;10.444;2023-01-24T12:00:35;10.77;;;5.75;;
26620;SDS011;14253;44.840;10.444;2023-01-24T12:11:15;14.80;;;6.93;;
26620;SDS011;14253;44.840;10.444;2023-01-24T12:16:57;9.65;;;5.80;;
26620;SDS011;14253;44.840;10.444;2023-01-24T12:22:13;8.50;;;5.65;;
26620;SDS011;14253;44.840;10.444;2023-01-24T12:24:44;13.20;;;6.38;;
26620;SDS011;14253;44.840;10.444;2023-01-24T12:27:21;12.45;;;6.40;;
26620;SDS011;14253;44.840;10.444;2023-01-24T12:30:01;10.98;;;5.97;;
26620;SDS011;14253;44.840;10.444;2023-01-24T12:32:40;10.77;;;5.03;;
26620;SDS011;14253;44.840;10.444;2023-01-24T12:35:21;10.38;;;5.10;;
26620;SDS011;14253;44.840;10.444;2023-01-24T12:40:33;8.73;;;5.18;;
26620;SDS011;14253;44.840;10.444;2023-01-24T12:45:51;9.07;;;4.90;;
26620;SDS011;14253;44.840;10.444;2023-01-24T12:48:41;9.60;;;5.25;;
26620;SDS011;14253;44.840;10.444;2023-01-24T12:51:20;8.00;;;4.70;;
26620;SDS011;14253;44.840;10.444;2023-01-24T12:56:23;10.52;;;4.15;;
26620;SDS011;14253;44.840;10.444;2023-01-24T12:58:52;7.32;;;4.65;;
26620;SDS011;14253;44.840;10.444;2023-01-24T13:01:30;9.88;;;4.95;;
26620;SDS011;14253;44.840;10.444;2023-01-24T13:06:45;6.82;;;4.20;;
26620;SDS011;14253;44.840;10.444;2023-01-24T13:11:53;7.53;;;4.63;;
26620;SDS011;14253;44.840;10.444;2023-01-24T13:14:22;8.63;;;4.15;;
26620;SDS011;14253;44.840;10.444;2023-01-24T13:17:04;9.75;;;4.43;;
26620;SDS011;14253;44.840;10.444;2023-01-24T13:33:12;11.05;;;6.03;;
26620;SDS011;14253;44.840;10.444;2023-01-24T13:35:46;8.98;;;4.97;;
26620;SDS011;14253;44.840;10.444;2023-01-24T13:38:21;7.32;;;4.85;;
26620;SDS011;14253;44.840;10.444;2023-01-24T13:41:00;9.15;;;5.30;;
26620;SDS011;14253;44.840;10.444;2023-01-24T13:46:12;8.43;;;4.95;;
26620;SDS011;14253;44.840;10.444;2023-01-24T13:56:23;8.48;;;5.53;;
26620;SDS011;14253;44.840;10.444;2023-01-24T13:58:51;10.55;;;5.40;;
26620;SDS011;14253;44.840;10.444;2023-01-24T14:01:18;10.90;;;5.55;;
26620;SDS011;14253;44.840;10.444;2023-01-24T14:04:00;7.22;;;5.15;;
26620;SDS011;14253;44.840;10.444;2023-01-24T14:06:44;12.93;;;5.55;;
26620;SDS011;14253;44.840;10.444;2023-01-24T14:09:12;10.00;;;4.82;;
26620;SDS011;14253;44.840;10.444;2023-01-24T14:11:54;9.18;;;5.15;;
26620;SDS011;14253;44.840;10.444;2023-01-24T14:14:32;7.80;;;4.65;;
26620;SDS011;14253;44.840;10.444;2023-01-24T14:19:28;8.98;;;5.13;;
26620;SDS011;14253;44.840;10.444;2023-01-24T14:27:36;10.00;;;5.20;;
26620;SDS011;14253;44.840;10.444;2023-01-24T14:36:12;7.68;;;4.43;;
26620;SDS011;14253;44.840;10.444;2023-01-24T14:38:38;9.32;;;4.80;;
26620;SDS011;14253;44.840;10.444;2023-01-24T14:41:04;10.30;;;4.28;;
26620;SDS011;14253;44.840;10.444;2023-01-24T14:43:37;7.85;;;4.57;;
26620;SDS011;14253;44.840;10.444;2023-01-24T14:46:11;9.82;;;6.00;;
26620;SDS011;14253;44.840;10.444;2023-01-24T14:48:50;10.02;;;5.53;;
26620;SDS011;14253;44.840;10.444;2023-01-24T14:51:17;10.35;;;4.80;;
26620;SDS011;14253;44.840;10.444;2023-01-24T14:53:49;10.65;;;5.20;;
26620;SDS011;14253;44.840;10.444;2023-01-24T14:56:17;40.22;;;23.60;;
26620;SDS011;14253;44.840;10.444;2023-01-24T14:58:44;13.55;;;8.50;;
26620;SDS011;14253;44.840;10.444;2023-01-24T15:01:22;12.05;;;5.60;;
26620;SDS011;14253;44.840;10.444;2023-01-24T15:03:56;9.57;;;5.03;;
26620;SDS011;14253;44.840;10.444;2023-01-24T15:06:23;8.52;;;5.25;;
26620;SDS011;14253;44.840;10.444;2023-01-24T15:08:57;8.48;;;5.35;;
26620;SDS011;14253;44.840;10.444;2023-01-24T15:11:27;13.85;;;6.80;;
26620;SDS011;14253;44.840;10.444;2023-01-24T15:16:36;12.00;;;7.20;;
26620;SDS011;14253;44.840;10.444;2023-01-24T15:19:25;14.15;;;7.72;;
26620;SDS011;14253;44.840;10.444;2023-01-24T15:21:51;18.33;;;7.95;;
26620;SDS011;14253;44.840;10.444;2023-01-24T15:24:28;11.23;;;7.78;;
26620;SDS011;14253;44.840;10.444;2023-01-24T15:26:56;11.93;;;8.27;;
26620;SDS011;14253;44.840;10.444;2023-01-24T15:30:04;11.77;;;8.05;;
26620;SDS011;14253;44.840;10.444;2023-01-24T15:46:32;14.57;;;8.27;;
26620;SDS011;14253;44.840;10.444;2023-01-24T15:54:37;16.05;;;9.43;;
26620;SDS011;14253;44.840;10.444;2023-01-24T15:57:05;12.68;;;8.82;;
26620;SDS011;14253;44.840;10.444;2023-01-24T15:59:42;17.00;;;9.95;;
26620;SDS011;14253;44.840;10.444;2023-01-24T16:02:12;19.65;;;10.32;;
26620;SDS011;14253;44.840;10.444;2023-01-24T16:04:43;17.08;;;10.27;;
26620;SDS011;14253;44.840;10.444;2023-01-24T16:07:10;18.02;;;10.70;;
26620;SDS011;14253;44.840;10.444;2023-01-24T16:09:37;14.90;;;10.18;;
26620;SDS011;14253;44.840;10.444;2023-01-24T16:12:02;15.75;;;10.05;;
26620;SDS011;14253;44.840;10.444;2023-01-24T16:14:29;21.77;;;10.18;;
26620;SDS011;14253;44.840;10.444;2023-01-24T16:16:56;20.48;;;10.27;;
26620;SDS011;14253;44.840;10.444;2023-01-24T16:19:26;17.20;;;10.50;;
26620;SDS011;14253;44.840;10.444;2023-01-24T16:21:52;16.85;;;10.15;;
26620;SDS011;14253;44.840;10.444;2023-01-24T16:24:18;18.70;;;10.80;;
26620;SDS011;14253;44.840;10.444;2023-01-24T16:29:17;16.45;;;10.45;;
26620;SDS011;14253;44.840;10.444;2023-01-24T16:31:51;15.52;;;9.90;;
26620;SDS011;14253;44.840;10.444;2023-01-24T16:34:17;15.48;;;10.13;;
26620;SDS011;14253;44.840;10.444;2023-01-24T16:36:43;17.92;;;10.70;;
26620;SDS011;14253;44.840;10.444;2023-01-24T16:39:13;16.67;;;10.60;;
26620;SDS011;14253;44.840;10.444;2023-01-24T16:41:44;19.65;;;10.50;;
26620;SDS011;14253;44.840;10.444;2023-01-24T16:44:11;18.15;;;10.60;;
26620;SDS011;14253;44.840;10.444;2023-01-24T16:46:38;17.45;;;11.00;;
26620;SDS011;14253;44.840;10.444;2023-01-24T16:49:05;18.00;;;10.68;;
26620;SDS011;14253;44.840;10.444;2023-01-24T16:51:31;15.00;;;10.38;;
26620;SDS011;14253;44.840;10.444;2023-01-24T16:53:57;15.82;;;9.82;;
26620;SDS011;14253;44.840;10.444;2023-01-24T16:56:23;18.40;;;10.10;;
26620;SDS011;14253;44.840;10.444;2023-01-24T16:58:55;16.10;;;10.90;;
26620;SDS011;14253;44.840;10.444;2023-01-24T17:01:21;15.65;;;10.82;;
26620;SDS011;14253;44.840;10.444;2023-01-24T17:03:51;20.33;;;11.82;;
26620;SDS011;14253;44.840;10.444;2023-01-24T17:06:18;20.23;;;11.98;;
26620;SDS011;14253;44.840;10.444;2023-01-24T17:08:44;17.08;;;11.38;;
26620;SDS011;14253;44.840;10.444;2023-01-24T17:11:14;19.42;;;10.93;;
26620;SDS011;14253;44.840;10.444;2023-01-24T17:13:41;16.83;;;10.05;;
26620;SDS011;14253;44.840;10.444;2023-01-24T17:16:08;20.10;;;11.75;;
26620;SDS011;14253;44.840;10.444;2023-01-24T17:18:36;24.90;;;11.80;;
26620;SDS011;14253;44.840;10.444;2023-01-24T17:21:03;22.05;;;11.63;;
26620;SDS011;14253;44.840;10.444;2023-01-24T17:23:34;23.42;;;13.38;;
26620;SDS011;14253;44.840;10.444;2023-01-24T17:26:03;16.10;;;11.20;;